PWSweather.com
Personal Weather Stations
Station Observations
KMIEASTT1
Tawas Bay, East Tawas, MI 48730

Tawas BayEast Tawas, MI 48730

Lat: 44.28, Lon: -83.48

Elevation: 600

Station Type: Davis VantagePro

http://www.tawasbayweather.com

High Low Average
Temperature 33.2°F0.7°C 23.1°F-4.9°C 28.4°F-2.0°C
Dew Point 23.5°F-4.7°C 16.0°F-8.9°C 19.8°F-6.8°C
Winds 17.0 mph 27.4 kmh Calm Calm 6.0 mph WNW9.7 kmh WNW
Wind Gusts 20.0 mph32.2 kmh -- 11.0 mph17.7 kmh
Humidity 82% 54% 70%
Pressure 30.33 in1027.1 mb 30.01 in1016.3 mb -
Precipitation 0.00 in0.0 mm - -
Hour Temp Dew Point Humidity Winds Wind Gusts Pressure Precip Precip Rate Daily Precip Total
12:00 AM 28.8°F-1.8°C 22.8°F-5.1°C 78% 6.0 mph W9.7 kmh W 10.0 mph16.1 kmh 30.01 in1016.3 mb 0.00 in0.0 mm 0.00 in0.0 mm 0.00 in0.0 mm
12:15 AM 28.7°F-1.8°C 23.0°F-5.0°C 79% 7.0 mph WNW11.3 kmh WNW 10.0 mph16.1 kmh 30.01 in1016.3 mb 0.00 in0.0 mm 0.00 in0.0 mm 0.00 in0.0 mm
12:30 AM 28.3°F-2.1°C 22.3°F-5.4°C 78% 11.0 mph WNW17.7 kmh WNW 16.0 mph25.7 kmh 30.01 in1016.3 mb 0.00 in0.0 mm 0.00 in0.0 mm 0.00 in0.0 mm
12:45 AM 28.1°F-2.2°C 22.1°F-5.5°C 78% 7.0 mph WNW11.3 kmh WNW 12.0 mph19.3 kmh 30.02 in1016.6 mb 0.00 in0.0 mm 0.00 in0.0 mm 0.00 in0.0 mm
01:00 AM 28.1°F-2.2°C 21.8°F-5.7°C 77% 9.0 mph NW14.5 kmh NW 15.0 mph24.1 kmh 30.02 in1016.6 mb 0.00 in0.0 mm 0.00 in0.0 mm 0.00 in0.0 mm
01:15 AM 27.9°F-2.3°C 21.9°F-5.6°C 78% 7.0 mph NW11.3 kmh NW 16.0 mph25.7 kmh 30.03 in1016.9 mb 0.00 in0.0 mm 0.00 in0.0 mm 0.00 in0.0 mm
01:30 AM 27.8°F-2.3°C 21.9°F-5.6°C 78% 5.0 mph NNW8.0 kmh NNW 11.0 mph17.7 kmh 30.04 in1017.3 mb 0.00 in0.0 mm 0.00 in0.0 mm 0.00 in0.0 mm
01:45 AM 27.6°F-2.4°C 21.7°F-5.7°C 78% 9.0 mph NW14.5 kmh NW 11.0 mph17.7 kmh 30.04 in1017.3 mb 0.00 in0.0 mm 0.00 in0.0 mm 0.00 in0.0 mm
02:00 AM 27.5°F-2.5°C 21.9°F-5.6°C 79% 6.0 mph WNW9.7 kmh WNW 10.0 mph16.1 kmh 30.05 in1017.6 mb 0.00 in0.0 mm 0.00 in0.0 mm 0.00 in0.0 mm
02:15 AM 27.3°F-2.6°C 21.4°F-5.9°C 78% 4.0 mph WNW6.4 kmh WNW 7.0 mph11.3 kmh 30.05 in1017.6 mb 0.00 in0.0 mm 0.00 in0.0 mm 0.00 in0.0 mm
02:30 AM 27.0°F-2.8°C 21.7°F-5.7°C 80% 4.0 mph W6.4 kmh W 8.0 mph12.9 kmh 30.05 in1017.6 mb 0.00 in0.0 mm 0.00 in0.0 mm 0.00 in0.0 mm
02:45 AM 26.7°F-2.9°C 21.7°F-5.7°C 81% 3.0 mph WNW4.8 kmh WNW 7.0 mph11.3 kmh 30.06 in1017.9 mb 0.00 in0.0 mm 0.00 in0.0 mm 0.00 in0.0 mm
03:00 AM 26.7°F-2.9°C 21.7°F-5.7°C 81% 4.0 mph NW6.4 kmh NW 12.0 mph19.3 kmh 30.05 in1017.6 mb 0.00 in0.0 mm 0.00 in0.0 mm 0.00 in0.0 mm
03:15 AM 26.6°F-3.0°C 21.6°F-5.8°C 81% 3.0 mph WNW4.8 kmh WNW 8.0 mph12.9 kmh 30.06 in1017.9 mb 0.00 in0.0 mm 0.00 in0.0 mm 0.00 in0.0 mm
03:30 AM 26.5°F-3.1°C 21.5°F-5.8°C 81% 3.0 mph WNW4.8 kmh WNW 6.0 mph9.7 kmh 30.06 in1017.9 mb 0.00 in0.0 mm 0.00 in0.0 mm 0.00 in0.0 mm
03:45 AM 26.5°F-3.1°C 21.5°F-5.8°C 81% 1.0 mph NW1.6 kmh NW 9.0 mph14.5 kmh 30.07 in1018.3 mb 0.00 in0.0 mm 0.00 in0.0 mm 0.00 in0.0 mm
04:00 AM 26.4°F-3.1°C 21.4°F-5.9°C 81% 4.0 mph WNW6.4 kmh WNW 6.0 mph9.7 kmh 30.07 in1018.3 mb 0.00 in0.0 mm 0.00 in0.0 mm 0.00 in0.0 mm
04:15 AM 26.3°F-3.2°C 21.6°F-5.8°C 82% 4.0 mph W6.4 kmh W 8.0 mph12.9 kmh 30.08 in1018.6 mb 0.00 in0.0 mm 0.00 in0.0 mm 0.00 in0.0 mm
04:30 AM 26.3°F-3.2°C 21.6°F-5.8°C 82% 6.0 mph WSW9.7 kmh WSW 10.0 mph16.1 kmh 30.09 in1019.0 mb 0.00 in0.0 mm 0.00 in0.0 mm 0.00 in0.0 mm
04:45 AM 26.2°F-3.2°C 21.2°F-6.0°C 81% 5.0 mph W8.0 kmh W 7.0 mph11.3 kmh 30.09 in1019.0 mb 0.00 in0.0 mm 0.00 in0.0 mm 0.00 in0.0 mm
05:00 AM 26.2°F-3.2°C 20.9°F-6.2°C 80% 11.0 mph WNW17.7 kmh WNW 12.0 mph19.3 kmh 30.10 in1019.3 mb 0.00 in0.0 mm 0.00 in0.0 mm 0.00 in0.0 mm
05:15 AM 26.5°F-3.1°C 20.9°F-6.2°C 79% 4.0 mph NW6.4 kmh NW 12.0 mph19.3 kmh 30.10 in1019.3 mb 0.00 in0.0 mm 0.00 in0.0 mm 0.00 in0.0 mm
05:30 AM 26.7°F-2.9°C 20.8°F-6.2°C 78% 6.0 mph W9.7 kmh W 11.0 mph17.7 kmh 30.09 in1019.0 mb 0.00 in0.0 mm 0.00 in0.0 mm 0.00 in0.0 mm
05:45 AM 26.8°F-2.9°C 20.6°F-6.3°C 77% 3.0 mph NW4.8 kmh NW 10.0 mph16.1 kmh 30.10 in1019.3 mb 0.00 in0.0 mm 0.00 in0.0 mm 0.00 in0.0 mm
06:00 AM 27.0°F-2.8°C 20.8°F-6.2°C 77% 5.0 mph W8.0 kmh W 13.0 mph20.9 kmh 30.10 in1019.3 mb 0.00 in0.0 mm 0.00 in0.0 mm 0.00 in0.0 mm
06:15 AM 27.0°F-2.8°C 20.8°F-6.2°C 77% 6.0 mph NW9.7 kmh NW 10.0 mph16.1 kmh 30.11 in1019.6 mb 0.00 in0.0 mm 0.00 in0.0 mm 0.00 in0.0 mm
06:30 AM 27.0°F-2.8°C 20.8°F-6.2°C 77% 10.0 mph W16.1 kmh W 11.0 mph17.7 kmh 30.11 in1019.6 mb 0.00 in0.0 mm 0.00 in0.0 mm 0.00 in0.0 mm
06:45 AM 27.1°F-2.7°C 20.9°F-6.2°C 77% 3.0 mph NW4.8 kmh NW 13.0 mph20.9 kmh 30.12 in1020.0 mb 0.00 in0.0 mm 0.00 in0.0 mm 0.00 in0.0 mm
07:00 AM 27.2°F-2.7°C 21.0°F-6.1°C 77% 6.0 mph NW9.7 kmh NW 11.0 mph17.7 kmh 30.13 in1020.3 mb 0.00 in0.0 mm 0.00 in0.0 mm 0.00 in0.0 mm
07:15 AM 27.2°F-2.7°C 20.7°F-6.3°C 76% 12.0 mph WNW19.3 kmh WNW 15.0 mph24.1 kmh 30.14 in1020.7 mb 0.00 in0.0 mm 0.00 in0.0 mm 0.00 in0.0 mm
07:30 AM 27.2°F-2.7°C 20.7°F-6.3°C 76% 5.0 mph NW8.0 kmh NW 12.0 mph19.3 kmh 30.15 in1021.0 mb 0.00 in0.0 mm 0.00 in0.0 mm 0.00 in0.0 mm
07:45 AM 27.2°F-2.7°C 20.7°F-6.3°C 76% 7.0 mph NW11.3 kmh NW 11.0 mph17.7 kmh 30.16 in1021.3 mb 0.00 in0.0 mm 0.00 in0.0 mm 0.00 in0.0 mm
08:00 AM 27.3°F-2.6°C 21.1°F-6.1°C 77% 4.0 mph W6.4 kmh W 8.0 mph12.9 kmh 30.16 in1021.3 mb 0.00 in0.0 mm 0.00 in0.0 mm 0.00 in0.0 mm
08:15 AM 27.5°F-2.5°C 21.3°F-5.9°C 77% 6.0 mph W9.7 kmh W 9.0 mph14.5 kmh 30.16 in1021.3 mb 0.00 in0.0 mm 0.00 in0.0 mm 0.00 in0.0 mm
08:30 AM 27.9°F-2.3°C 21.3°F-5.9°C 76% 7.0 mph WSW11.3 kmh WSW 11.0 mph17.7 kmh 30.17 in1021.7 mb 0.00 in0.0 mm 0.00 in0.0 mm 0.00 in0.0 mm
08:45 AM 28.8°F-1.8°C 21.6°F-5.8°C 74% 6.0 mph NW9.7 kmh NW 11.0 mph17.7 kmh 30.17 in1021.7 mb 0.00 in0.0 mm 0.00 in0.0 mm 0.00 in0.0 mm
09:00 AM 29.3°F-1.5°C 21.1°F-6.1°C 71% 10.0 mph WNW16.1 kmh WNW 12.0 mph19.3 kmh 30.18 in1022.0 mb 0.00 in0.0 mm 0.00 in0.0 mm 0.00 in0.0 mm
09:15 AM 30.1°F-1.1°C 21.5°F-5.8°C 70% 10.0 mph NW16.1 kmh NW 14.0 mph22.5 kmh 30.18 in1022.0 mb 0.00 in0.0 mm 0.00 in0.0 mm 0.00 in0.0 mm
09:30 AM 30.2°F-1.0°C 21.6°F-5.8°C 70% 5.0 mph W8.0 kmh W 9.0 mph14.5 kmh 30.18 in1022.0 mb 0.00 in0.0 mm 0.00 in0.0 mm 0.00 in0.0 mm
09:45 AM 30.3°F-0.9°C 21.7°F-5.7°C 70% 4.0 mph NW6.4 kmh NW 13.0 mph20.9 kmh 30.18 in1022.0 mb 0.00 in0.0 mm 0.00 in0.0 mm 0.00 in0.0 mm
10:00 AM 30.9°F-0.6°C 21.6°F-5.8°C 68% 5.0 mph NW8.0 kmh NW 12.0 mph19.3 kmh 30.19 in1022.4 mb 0.00 in0.0 mm 0.00 in0.0 mm 0.00 in0.0 mm
10:15 AM 30.2°F-1.0°C 21.6°F-5.8°C 70% 6.0 mph NW9.7 kmh NW 11.0 mph17.7 kmh 30.19 in1022.4 mb 0.00 in0.0 mm 0.00 in0.0 mm 0.00 in0.0 mm
10:30 AM 30.4°F-0.9°C 21.8°F-5.7°C 70% 9.0 mph W14.5 kmh W 14.0 mph22.5 kmh 30.20 in1022.7 mb 0.00 in0.0 mm 0.00 in0.0 mm 0.00 in0.0 mm
10:45 AM 30.1°F-1.1°C 23.5°F-4.7°C 76% 3.0 mph WNW4.8 kmh WNW 11.0 mph17.7 kmh 30.20 in1022.7 mb 0.00 in0.0 mm 0.00 in0.0 mm 0.00 in0.0 mm
11:00 AM 30.9°F-0.6°C 21.9°F-5.6°C 69% 7.0 mph NW11.3 kmh NW 16.0 mph25.7 kmh 30.20 in1022.7 mb 0.00 in0.0 mm 0.00 in0.0 mm 0.00 in0.0 mm
11:15 AM 30.6°F-0.8°C 22.0°F-5.6°C 70% 9.0 mph NW14.5 kmh NW 13.0 mph20.9 kmh 30.21 in1023.0 mb 0.00 in0.0 mm 0.00 in0.0 mm 0.00 in0.0 mm
11:30 AM 28.8°F-1.8°C 22.2°F-5.4°C 76% 6.0 mph NW9.7 kmh NW 14.0 mph22.5 kmh 30.22 in1023.4 mb 0.00 in0.0 mm 0.00 in0.0 mm 0.00 in0.0 mm
11:45 AM 30.0°F-1.1°C 23.1°F-4.9°C 75% 9.0 mph NW14.5 kmh NW 13.0 mph20.9 kmh 30.22 in1023.4 mb 0.00 in0.0 mm 0.00 in0.0 mm 0.00 in0.0 mm
12:00 PM 30.3°F-0.9°C 22.0°F-5.6°C 71% 6.0 mph W9.7 kmh W 12.0 mph19.3 kmh 30.22 in1023.4 mb 0.00 in0.0 mm 0.00 in0.0 mm 0.00 in0.0 mm
12:15 PM 31.1°F-0.5°C 21.1°F-6.1°C 66% 4.0 mph NW6.4 kmh NW 10.0 mph16.1 kmh 30.22 in1023.4 mb 0.00 in0.0 mm 0.00 in0.0 mm 0.00 in0.0 mm
12:30 PM 31.0°F-0.6°C 19.1°F-7.2°C 61% 10.0 mph WNW16.1 kmh WNW 16.0 mph25.7 kmh 30.22 in1023.4 mb 0.00 in0.0 mm 0.00 in0.0 mm 0.00 in0.0 mm
12:45 PM 31.2°F-0.4°C 19.0°F-7.2°C 60% 5.0 mph W8.0 kmh W 13.0 mph20.9 kmh 30.22 in1023.4 mb 0.00 in0.0 mm 0.00 in0.0 mm 0.00 in0.0 mm
01:00 PM 31.5°F-0.3°C 19.6°F-6.9°C 61% 7.0 mph NW11.3 kmh NW 15.0 mph24.1 kmh 30.23 in1023.7 mb 0.00 in0.0 mm 0.00 in0.0 mm 0.00 in0.0 mm
01:15 PM 33.2°F0.7°C 20.4°F-6.4°C 59% 7.0 mph WNW11.3 kmh WNW 19.0 mph30.6 kmh 30.22 in1023.4 mb 0.00 in0.0 mm 0.00 in0.0 mm 0.00 in0.0 mm
01:30 PM 32.7°F0.4°C 19.2°F-7.1°C 57% Calm Calm 15.0 mph24.1 kmh 30.22 in1023.4 mb 0.00 in0.0 mm 0.00 in0.0 mm 0.00 in0.0 mm
01:45 PM 32.4°F0.2°C 19.7°F-6.8°C 59% 5.0 mph NNW8.0 kmh NNW 11.0 mph17.7 kmh 30.22 in1023.4 mb 0.00 in0.0 mm 0.00 in0.0 mm 0.00 in0.0 mm
02:00 PM 32.0°F0.0°C 19.7°F-6.8°C 60% 10.0 mph W16.1 kmh W 19.0 mph30.6 kmh 30.22 in1023.4 mb 0.00 in0.0 mm 0.00 in0.0 mm 0.00 in0.0 mm
02:15 PM 31.9°F-0.1°C 19.2°F-7.1°C 59% 11.0 mph NNW17.7 kmh NNW 13.0 mph20.9 kmh 30.22 in1023.4 mb 0.00 in0.0 mm 0.00 in0.0 mm 0.00 in0.0 mm
02:30 PM 32.2°F0.1°C 19.5°F-6.9°C 59% 5.0 mph W8.0 kmh W 17.0 mph27.4 kmh 30.22 in1023.4 mb 0.00 in0.0 mm 0.00 in0.0 mm 0.00 in0.0 mm
02:45 PM 32.2°F0.1°C 19.5°F-6.9°C 59% 3.0 mph WNW4.8 kmh WNW 13.0 mph20.9 kmh 30.22 in1023.4 mb 0.00 in0.0 mm 0.00 in0.0 mm 0.00 in0.0 mm
03:15 PM 32.2°F0.1°C 19.9°F-6.7°C 60% 8.0 mph NW12.9 kmh NW 14.0 mph22.5 kmh 30.23 in1023.7 mb 0.00 in0.0 mm 0.00 in0.0 mm 0.00 in0.0 mm
03:30 PM 32.1°F0.1°C 19.8°F-6.8°C 60% 9.0 mph NNW14.5 kmh NNW 13.0 mph20.9 kmh 30.23 in1023.7 mb 0.00 in0.0 mm 0.00 in0.0 mm 0.00 in0.0 mm
03:45 PM 32.2°F0.1°C 19.5°F-6.9°C 59% 13.0 mph W20.9 kmh W 18.0 mph29.0 kmh 30.24 in1024.0 mb 0.00 in0.0 mm 0.00 in0.0 mm 0.00 in0.0 mm
04:00 PM 33.0°F0.6°C 19.0°F-7.2°C 56% 5.0 mph WNW8.0 kmh WNW 16.0 mph25.7 kmh 30.24 in1024.0 mb 0.00 in0.0 mm 0.00 in0.0 mm 0.00 in0.0 mm
04:15 PM 32.8°F0.4°C 18.4°F-7.6°C 55% 7.0 mph W11.3 kmh W 20.0 mph32.2 kmh 30.24 in1024.0 mb 0.00 in0.0 mm 0.00 in0.0 mm 0.00 in0.0 mm
04:30 PM 32.8°F0.4°C 18.0°F-7.8°C 54% 17.0 mph W27.4 kmh W 19.0 mph30.6 kmh 30.24 in1024.0 mb 0.00 in0.0 mm 0.00 in0.0 mm 0.00 in0.0 mm
04:45 PM 31.6°F-0.2°C 18.5°F-7.5°C 58% 12.0 mph WNW19.3 kmh WNW 17.0 mph27.4 kmh 30.25 in1024.4 mb 0.00 in0.0 mm 0.00 in0.0 mm 0.00 in0.0 mm
05:00 PM 32.3°F0.2°C 19.2°F-7.1°C 58% 13.0 mph W20.9 kmh W 15.0 mph24.1 kmh 30.26 in1024.7 mb 0.00 in0.0 mm 0.00 in0.0 mm 0.00 in0.0 mm
05:15 PM 30.7°F-0.7°C 18.5°F-7.5°C 60% 9.0 mph W14.5 kmh W 17.0 mph27.4 kmh 30.26 in1024.7 mb 0.00 in0.0 mm 0.00 in0.0 mm 0.00 in0.0 mm
05:30 PM 30.9°F-0.6°C 18.7°F-7.4°C 60% 9.0 mph NW14.5 kmh NW 17.0 mph27.4 kmh 30.27 in1025.1 mb 0.00 in0.0 mm 0.00 in0.0 mm 0.00 in0.0 mm
05:45 PM 30.6°F-0.8°C 18.0°F-7.8°C 59% 12.0 mph NW19.3 kmh NW 14.0 mph22.5 kmh 30.27 in1025.1 mb 0.00 in0.0 mm 0.00 in0.0 mm 0.00 in0.0 mm
06:00 PM 29.7°F-1.3°C 17.1°F-8.3°C 59% 2.0 mph WNW3.2 kmh WNW 13.0 mph20.9 kmh 30.27 in1025.1 mb 0.00 in0.0 mm 0.00 in0.0 mm 0.00 in0.0 mm
06:15 PM 29.5°F-1.4°C 17.7°F-7.9°C 61% 5.0 mph NW8.0 kmh NW 6.0 mph9.7 kmh 30.28 in1025.4 mb 0.00 in0.0 mm 0.00 in0.0 mm 0.00 in0.0 mm
06:30 PM 28.6°F-1.9°C 17.3°F-8.2°C 62% 6.0 mph WNW9.7 kmh WNW 13.0 mph20.9 kmh 30.29 in1025.7 mb 0.00 in0.0 mm 0.00 in0.0 mm 0.00 in0.0 mm
06:45 PM 27.9°F-2.3°C 17.0°F-8.3°C 63% 4.0 mph NW6.4 kmh NW 12.0 mph19.3 kmh 30.29 in1025.7 mb 0.00 in0.0 mm 0.00 in0.0 mm 0.00 in0.0 mm
07:00 PM 27.4°F-2.6°C 16.5°F-8.6°C 63% 7.0 mph WNW11.3 kmh WNW 9.0 mph14.5 kmh 30.30 in1026.1 mb 0.00 in0.0 mm 0.00 in0.0 mm 0.00 in0.0 mm
07:15 PM 27.1°F-2.7°C 16.2°F-8.8°C 63% 7.0 mph NW11.3 kmh NW 11.0 mph17.7 kmh 30.30 in1026.1 mb 0.00 in0.0 mm 0.00 in0.0 mm 0.00 in0.0 mm
07:30 PM 26.9°F-2.8°C 16.0°F-8.9°C 63% 6.0 mph NW9.7 kmh NW 10.0 mph16.1 kmh 30.31 in1026.4 mb 0.00 in0.0 mm 0.00 in0.0 mm 0.00 in0.0 mm
07:45 PM 26.6°F-3.0°C 16.1°F-8.8°C 64% 4.0 mph NW6.4 kmh NW 10.0 mph16.1 kmh 30.31 in1026.4 mb 0.00 in0.0 mm 0.00 in0.0 mm 0.00 in0.0 mm
08:00 PM 26.4°F-3.1°C 16.3°F-8.7°C 65% 2.0 mph NW3.2 kmh NW 10.0 mph16.1 kmh 30.32 in1026.8 mb 0.00 in0.0 mm 0.00 in0.0 mm 0.00 in0.0 mm
08:15 PM 26.2°F-3.2°C 16.4°F-8.7°C 66% 2.0 mph NW3.2 kmh NW 11.0 mph17.7 kmh 30.32 in1026.8 mb 0.00 in0.0 mm 0.00 in0.0 mm 0.00 in0.0 mm
08:30 PM 25.9°F-3.4°C 16.1°F-8.8°C 66% 2.0 mph NW3.2 kmh NW 6.0 mph9.7 kmh 30.32 in1026.8 mb 0.00 in0.0 mm 0.00 in0.0 mm 0.00 in0.0 mm
08:45 PM 25.6°F-3.6°C 16.2°F-8.8°C 67% 3.0 mph NW4.8 kmh NW 3.0 mph4.8 kmh 30.33 in1027.1 mb 0.00 in0.0 mm 0.00 in0.0 mm 0.00 in0.0 mm
09:00 PM 25.3°F-3.7°C 16.2°F-8.8°C 68% Calm Calm 1.0 mph1.6 kmh 30.33 in1027.1 mb 0.00 in0.0 mm 0.00 in0.0 mm 0.00 in0.0 mm
09:15 PM 25.1°F-3.8°C 16.4°F-8.7°C 69% 3.0 mph W4.8 kmh W 5.0 mph8.0 kmh 30.33 in1027.1 mb 0.00 in0.0 mm 0.00 in0.0 mm 0.00 in0.0 mm
09:30 PM 24.9°F-3.9°C 16.5°F-8.6°C 70% Calm Calm 3.0 mph4.8 kmh 30.33 in1027.1 mb 0.00 in0.0 mm 0.00 in0.0 mm 0.00 in0.0 mm
09:45 PM 24.8°F-4.0°C 16.8°F-8.4°C 71% 4.0 mph W6.4 kmh W 6.0 mph9.7 kmh 30.32 in1026.8 mb 0.00 in0.0 mm 0.00 in0.0 mm 0.00 in0.0 mm
10:00 PM 24.6°F-4.1°C 16.9°F-8.4°C 72% Calm Calm 6.0 mph9.7 kmh 30.32 in1026.8 mb 0.00 in0.0 mm 0.00 in0.0 mm 0.00 in0.0 mm
10:15 PM 24.4°F-4.2°C 16.7°F-8.5°C 72% Calm Calm 3.0 mph4.8 kmh 30.32 in1026.8 mb 0.00 in0.0 mm 0.00 in0.0 mm 0.00 in0.0 mm
10:30 PM 24.2°F-4.3°C 16.8°F-8.4°C 73% Calm Calm 2.0 mph3.2 kmh 30.32 in1026.8 mb 0.00 in0.0 mm 0.00 in0.0 mm 0.00 in0.0 mm
10:45 PM 24.0°F-4.4°C 16.6°F-8.6°C 73% Calm Calm 2.0 mph3.2 kmh 30.32 in1026.8 mb 0.00 in0.0 mm 0.00 in0.0 mm 0.00 in0.0 mm
11:00 PM 23.8°F-4.6°C 16.4°F-8.7°C 73% Calm Calm -- 30.32 in1026.8 mb 0.00 in0.0 mm 0.00 in0.0 mm 0.00 in0.0 mm
11:15 PM 23.6°F-4.7°C 16.5°F-8.6°C 74% Calm Calm 1.0 mph1.6 kmh 30.32 in1026.8 mb 0.00 in0.0 mm 0.00 in0.0 mm 0.00 in0.0 mm
11:30 PM 23.3°F-4.8°C 16.9°F-8.4°C 76% 1.0 mph WSW1.6 kmh WSW 3.0 mph4.8 kmh 30.32 in1026.8 mb 0.00 in0.0 mm 0.00 in0.0 mm 0.00 in0.0 mm
11:45 PM 23.1°F-4.9°C 16.7°F-8.5°C 76% Calm Calm 3.0 mph4.8 kmh 30.32 in1026.8 mb 0.00 in0.0 mm 0.00 in0.0 mm 0.00 in0.0 mm